Aviation Digital Data Service (ADDS)

Output produced by TAFs form (2112 UTC 19 July 2018)
found at http://www.aviationweather.gov/adds/tafs/
 
KILM 192053Z 09008KT 10SM CLR 28/19 A3001 RMK AO2 SLP162 T02830194 56009
KILM 191720Z 1918/2018 09010KT P6SM FEW040 
     FM200100 06005KT P6SM FEW030 
     FM201100 05009KT P6SM VCSH SCT015 BKN050 
     FM201500 09008KT P6SM VCTS SCT020CB BKN030